Time;durP1;ratioP1;P1;durP2;ratioP2;P2;SDS_P1;SDS_P2;PMS_P1;PMS_P2;Temp;Humidity;BMP_temperature;BMP_pressure;BME280_temperature;BME280_humidity;BME280_pressure;Samples;Min_cycle;Max_cycle;Signal;HPM_P1;HPM_P2
2022/05/16 00:02:47;;;;;;;;;;;;;;;7.71;63.99;100625.91;2112591;82;21548;-70
2022/05/16 00:05:49;;;;;;;19.73;8.38;;;;;;;7.67;64.44;100624.03;2121829;82;20201;-71
2022/05/16 00:08:51;;;;;;;17.30;8.58;;;;;;;7.69;64.43;100625.23;2107083;82;21087;-71
2022/05/16 00:11:52;;;;;;;16.67;7.72;;;;;;;7.72;64.64;100630.24;2120931;82;21070;-70
2022/05/16 00:14:53;;;;;;;17.05;6.87;;;;;;;7.72;64.52;100626.28;2116914;82;21555;-71
2022/05/16 00:17:54;;;;;;;;;;;;;;;7.75;64.45;100628.64;2115901;82;21034;-72
2022/05/16 00:20:55;;;;;;;11.68;5.80;;;;;;;7.71;64.66;100629.87;2122460;82;20354;-70
2022/05/16 00:23:59;;;;;;;15.78;6.20;;;;;;;7.67;64.64;100631.95;2119802;82;21065;-70
2022/05/16 00:27:00;;;;;;;12.33;6.33;;;;;;;7.62;64.35;100632.84;2119377;82;21020;-70
2022/05/16 00:30:10;;;;;;;9.70;5.17;;;;;;;7.58;64.28;100628.33;2112540;82;21094;-69
2022/05/16 00:33:11;;;;;;;14.53;5.10;;;;;;;7.52;64.44;100635.95;2116721;82;21593;-70
2022/05/16 00:36:12;;;;;;;16.77;5.55;;;;;;;7.49;64.54;100640.16;2116544;82;21099;-70
2022/05/16 00:39:16;;;;;;;7.65;5.17;;;;;;;7.52;64.94;100638.11;2118801;82;21337;-71
2022/05/16 00:42:20;;;;;;;11.18;5.53;;;;;;;7.48;64.80;100641.14;2114669;82;21130;-71
2022/05/16 00:45:21;;;;;;;13.15;5.03;;;;;;;7.47;64.74;100646.08;2118883;82;21022;-72
2022/05/16 00:48:22;;;;;;;;;;;;;;;7.44;65.20;100650.31;2118817;82;22454;-70
2022/05/16 00:51:31;;;;;;;9.95;4.58;;;;;;;7.44;65.16;100647.67;2107972;82;20177;-70
2022/05/16 00:54:51;;;;;;;6.53;4.55;;;;;;;7.42;65.11;100647.80;2112806;82;21118;-70
2022/05/16 00:57:56;;;;;;;8.63;4.22;;;;;;;7.40;65.44;100638.70;2113333;82;21070;-70
2022/05/16 01:00:57;;;;;;;8.03;4.67;;;;;;;7.40;65.30;100644.44;2110959;82;21091;-70
2022/05/16 01:07:31;;;;;;;11.10;4.55;;;;;;;7.36;65.26;100639.09;2112380;83;20511;-69
2022/05/16 01:10:35;;;;;;;6.17;3.92;;;;;;;7.32;65.41;100640.30;2124774;82;21023;-70
2022/05/16 01:13:36;;;;;;;4.78;2.92;;;;;;;7.31;65.42;100642.61;2118635;82;21171;-70
2022/05/16 01:16:37;;;;;;;;;;;;;;;7.31;65.48;100640.80;2123821;82;20983;-70
2022/05/16 01:19:38;;;;;;;6.45;3.90;;;;;;;7.27;65.79;100641.22;2120490;82;20167;-70
2022/05/16 01:22:45;;;;;;;9.33;4.62;;;;;;;7.20;65.69;100643.53;2117402;82;21026;-70
2022/05/16 01:25:49;;;;;;;9.93;4.53;;;;;;;7.22;65.71;100648.20;2113985;82;21754;-71
2022/05/16 01:28:53;;;;;;;7.30;4.30;;;;;;;7.23;65.88;100644.58;2115917;82;21090;-73
2022/05/16 01:31:54;;;;;;;8.40;4.17;;;;;;;7.15;66.04;100650.54;2114881;82;21138;-70
2022/05/16 01:34:55;;;;;;;;;;;;;;;7.11;66.05;100647.80;2121437;82;21635;-69
2022/05/16 01:41:21;;;;;;;10.28;5.17;;;;;;;7.07;66.17;100647.72;2116506;83;21063;-69
2022/05/16 01:44:22;;;;;;;9.80;5.22;;;;;;;7.09;65.94;100648.89;2101801;83;21125;-69
2022/05/16 01:47:23;;;;;;;8.33;5.12;;;;;;;7.05;66.11;100654.09;2110924;82;21068;-73
2022/05/16 01:50:25;;;;;;;10.60;4.95;;;;;;;6.99;66.31;100653.30;2116229;82;21108;-69
2022/05/16 01:53:26;;;;;;;12.93;5.70;;;;;;;6.88;66.03;100652.39;2113287;82;21017;-71
2022/05/16 01:56:27;;;;;;;12.93;5.83;;;;;;;6.83;66.21;100654.58;2117298;82;21101;-70
2022/05/16 01:59:28;;;;;;;10.75;4.92;;;;;;;6.84;66.29;100655.41;2116466;82;21083;-69
2022/05/16 02:02:29;;;;;;;;;;;;;;;6.82;66.21;100654.23;2113727;82;21624;-70
2022/05/16 02:05:30;;;;;;;15.75;6.62;;;;;;;6.75;66.47;100660.98;2113375;82;20140;-70
2022/05/16 02:08:31;;;;;;;13.08;6.72;;;;;;;6.68;66.78;100651.93;2108745;82;21064;-70
2022/05/16 02:11:32;;;;;;;16.30;7.75;;;;;;;6.65;67.08;100654.34;2113432;82;21016;-70
2022/05/16 02:14:34;;;;;;;15.78;6.60;;;;;;;6.55;67.29;100657.37;2121925;82;21105;-69
2022/05/16 02:17:35;;;;;;;16.77;7.15;;;;;;;6.50;67.13;100656.91;2114574;82;21016;-70
2022/05/16 02:20:37;;;;;;;12.23;6.65;;;;;;;6.42;67.07;100659.34;2104619;82;21590;-70
2022/05/16 02:26:59;;;;;;;12.07;5.85;;;;;;;6.37;67.20;100657.59;2115922;82;21057;-70
2022/05/16 02:30:00;;;;;;;;;;;;;;;6.33;66.99;100661.43;2116166;82;21157;-71
2022/05/16 02:33:03;;;;;;;13.83;6.45;;;;;;;6.27;67.02;100662.28;2113910;82;20230;-69
2022/05/16 02:36:04;;;;;;;13.95;7.42;;;;;;;6.24;67.46;100663.02;2114820;82;21074;-70
2022/05/16 02:39:05;;;;;;;21.50;6.97;;;;;;;6.11;68.04;100659.70;2124248;82;21090;-69
2022/05/16 02:42:08;;;;;;;15.05;6.87;;;;;;;6.04;68.22;100665.97;2117967;82;21270;-70
2022/05/16 02:45:10;;;;;;;11.88;6.35;;;;;;;6.06;68.29;100666.69;2109244;82;21053;-70
2022/05/16 02:48:11;;;;;;;11.75;6.37;;;;;;;6.09;68.05;100664.28;2118830;82;21020;-69
2022/05/16 02:51:12;;;;;;;;;;;;;;;6.04;68.23;100660.20;2117632;82;20999;-72
2022/05/16 02:54:14;;;;;;;13.32;6.30;;;;;;;6.03;68.31;100659.87;2115165;82;20217;-70
2022/05/16 02:57:15;;;;;;;12.50;6.50;;;;;;;5.96;68.50;100653.89;2117466;82;21063;-70
2022/05/16 03:00:17;;;;;;;;;;;;;;;5.98;68.44;100661.20;2121299;82;21594;-70
2022/05/16 03:03:18;;;;;;;17.30;6.85;;;;;;;6.02;68.28;100658.17;2110250;82;20186;-72
2022/05/16 03:06:19;;;;;;;;;;;;;;;6.02;68.36;100657.34;2114412;82;21057;-71
2022/05/16 03:09:22;;;;;;;11.25;6.17;;;;;;;6.00;68.60;100657.97;2116673;82;20145;-70
2022/05/16 03:12:24;;;;;;;10.08;5.53;;;;;;;5.99;68.72;100657.11;2116837;82;21523;-69
2022/05/16 03:15:25;;;;;;;10.65;6.28;;;;;;;5.97;68.50;100656.41;2117335;82;21057;-70
2022/05/16 03:18:30;;;;;;;;;;;;;;;5.93;68.73;100652.79;2120968;82;21710;-70
2022/05/16 03:21:32;;;;;;;9.63;5.80;;;;;;;5.92;68.73;100648.50;2118387;82;20167;-70
2022/05/16 03:24:34;;;;;;;11.90;5.70;;;;;;;5.88;69.11;100651.83;2115566;82;21033;-70
2022/05/16 03:27:35;;;;;;;11.70;5.17;;;;;;;5.91;68.98;100652.90;2115493;82;21057;-69
2022/05/16 03:30:36;;;;;;;15.32;6.08;;;;;;;5.99;69.09;100647.88;2112461;83;21110;-70
2022/05/16 03:33:38;;;;;;;16.90;6.30;;;;;;;6.18;69.35;100645.92;2115649;82;21137;-69
2022/05/16 03:36:40;;;;;;;11.75;5.28;;;;;;;6.42;69.32;100643.53;2110962;82;21073;-70
2022/05/16 03:43:01;;;;;;;12.20;5.87;;;;;;;6.99;69.29;100634.83;2125604;82;21089;-70
2022/05/16 03:46:02;;;;;;;11.10;5.25;;;;;;;7.45;69.17;100634.81;2117315;82;21087;-70
2022/05/16 03:49:05;;;;;;;9.93;4.95;;;;;;;7.83;68.92;100638.88;2124097;82;21037;-69
2022/05/16 03:52:06;;;;;;;10.48;5.58;;;;;;;8.22;68.38;100632.78;2117072;82;20987;-69
2022/05/16 03:55:14;;;;;;;14.58;6.15;;;;;;;8.59;68.33;100632.09;2113971;82;21077;-70
2022/05/16 03:58:16;;;;;;;13.75;5.33;;;;;;;9.04;67.99;100628.79;2111823;82;21365;-71
2022/05/16 04:01:18;;;;;;;6.60;4.70;;;;;;;9.36;67.23;100637.18;2111885;82;21085;-69
2022/05/16 04:04:19;;;;;;;8.10;4.47;;;;;;;9.71;66.82;100634.27;2111207;82;21123;-70
2022/05/16 04:07:20;;;;;;;13.98;5.42;;;;;;;10.03;66.27;100638.28;2107532;82;21051;-70
2022/05/16 04:10:21;;;;;;;16.60;6.25;;;;;;;10.22;65.99;100638.13;2119705;82;21597;-70
2022/05/16 04:13:26;;;;;;;11.70;5.33;;;;;;;10.64;66.14;100638.81;2113170;82;21105;-70
2022/05/16 04:16:27;;;;;;;14.60;6.42;;;;;;;11.43;65.08;100630.31;2120221;82;21105;-70
2022/05/16 04:19:28;;;;;;;12.07;5.35;;;;;;;11.43;65.08;100630.31;2120803;82;21053;-70
2022/05/16 04:22:30;;;;;;;9.05;5.85;;;;;;;11.87;64.59;100639.48;2114582;82;21037;-70
2022/05/16 04:25:32;;;;;;;10.72;5.35;;;;;;;12.43;64.16;100624.59;2119611;82;21056;-70
2022/05/16 04:28:34;;;;;;;17.75;5.97;;;;;;;13.00;63.29;100636.50;2110446;82;21013;-70
2022/05/16 04:31:35;;;;;;;14.93;6.15;;;;;;;13.49;62.58;100635.56;2106741;83;20983;-70
2022/05/16 04:34:36;;;;;;;13.93;6.58;;;;;;;13.75;61.98;100637.94;2092335;82;21030;-70
2022/05/16 04:37:37;;;;;;;12.13;6.00;;;;;;;14.22;61.42;100636.98;2105880;82;21505;-71
2022/05/16 04:42:40;;;;;;;14.83;6.58;;;;;;;14.89;60.97;100636.77;2114113;82;21004;-71
2022/05/16 04:43:41;;;;;;;9.20;5.92;;;;;;;15.45;59.95;100635.30;2108099;83;21125;-70
2022/05/16 04:46:43;;;;;;;7.60;5.62;;;;;;;15.91;59.03;100635.08;2109999;82;21032;-72
2022/05/16 04:49:44;;;;;;;10.43;6.28;;;;;;;16.22;57.72;100641.13;2116858;82;21103;-70
2022/05/16 04:52:46;;;;;;;13.03;6.05;;;;;;;16.44;57.67;100646.80;2115260;82;21026;-70
2022/05/16 04:55:47;;;;;;;12.95;6.08;;;;;;;17.07;57.23;100651.47;2111402;82;21637;-71
2022/05/16 04:58:48;;;;;;;10.75;6.28;;;;;;;17.58;56.21;100647.11;2112085;82;21114;-71
2022/05/16 05:01:50;;;;;;;10.90;4.90;;;;;;;17.95;55.26;100643.66;2112227;82;21044;-71
2022/05/16 05:04:51;;;;;;;9.70;4.90;;;;;;;18.27;54.08;100628.13;2109247;82;21617;-70
2022/05/16 05:07:52;;;;;;;9.45;5.30;;;;;;;18.45;53.52;100638.79;2120184;82;21048;-74
2022/05/16 05:17:33;;;;;;;9.60;4.60;;;;;;;19.12;52.00;100626.13;2105123;82;21065;-74
2022/05/16 05:20:34;;;;;;;10.75;5.42;;;;;;;19.36;50.84;100632.70;2116730;82;21138;-71
2022/05/16 05:23:38;;;;;;;8.93;4.70;;;;;;;19.34;50.40;100635.58;2111623;82;21104;-73
2022/05/16 05:26:39;;;;;;;9.63;4.37;;;;;;;19.74;50.11;100637.33;2119963;82;21687;-71
2022/05/16 05:29:40;;;;;;;9.13;4.60;;;;;;;20.01;49.28;100634.80;2119598;82;21034;-73
2022/05/16 05:32:44;;;;;;;7.40;4.85;;;;;;;20.21;48.66;100625.77;2116137;82;21050;-72
2022/05/16 05:35:45;;;;;;;7.40;4.28;;;;;;;20.43;48.50;100631.63;2111423;82;21093;-71
2022/05/16 05:38:51;;;;;;;10.72;4.60;;;;;;;20.62;47.66;100637.42;2103404;82;21325;-71
2022/05/16 05:41:52;;;;;;;7.00;3.95;;;;;;;20.72;47.05;100634.22;2113436;82;21628;-71
2022/05/16 05:44:54;;;;;;;9.50;4.30;;;;;;;20.58;45.39;100634.84;2119606;82;21477;-72
2022/05/16 05:47:55;;;;;;;7.92;4.30;;;;;;;20.51;46.32;100632.19;2116768;82;21083;-71
2022/05/16 05:50:57;;;;;;;8.58;4.50;;;;;;;20.59;44.48;100631.95;2114965;82;21026;-71
2022/05/16 05:54:01;;;;;;;8.53;4.70;;;;;;;20.51;45.13;100630.02;2115945;82;21079;-72
2022/05/16 05:57:03;;;;;;;8.15;3.90;;;;;;;20.46;44.92;100636.05;2117029;82;21055;-71
2022/05/16 06:00:09;;;;;;;9.80;4.72;;;;;;;20.36;44.09;100633.05;2120197;82;21121;-71
2022/05/16 06:03:11;;;;;;;6.60;3.90;;;;;;;20.16;43.94;100630.48;2117217;82;21041;-71
2022/05/16 06:06:12;;;;;;;10.10;3.92;;;;;;;19.81;43.84;100636.27;2118266;82;21018;-72
2022/05/16 06:09:13;;;;;;;9.45;4.17;;;;;;;19.70;43.90;100635.06;2119441;82;21576;-71
2022/05/16 06:12:15;;;;;;;8.45;4.22;;;;;;;19.84;44.00;100633.14;2108794;82;21041;-72
2022/05/16 06:15:17;;;;;;;7.72;4.28;;;;;;;19.78;43.93;100642.08;2119684;82;20998;-72
2022/05/16 06:18:18;;;;;;;9.15;4.12;;;;;;;20.01;43.64;100647.45;2115037;82;21092;-73
2022/05/16 06:21:19;;;;;;;13.68;6.67;;;;;;;20.44;43.81;100653.48;2123906;82;21162;-75
2022/05/16 06:27:40;;;;;;;9.85;4.35;;;;;;;21.20;43.37;100639.78;2104052;83;21030;-74
2022/05/16 06:30:45;;;;;;;8.83;4.62;;;;;;;21.51;42.36;100634.47;2098247;83;21152;-74
2022/05/16 06:33:47;;;;;;;7.05;3.12;;;;;;;21.52;42.46;100640.18;2109518;82;21044;-74
2022/05/16 06:36:49;;;;;;;8.20;3.47;;;;;;;21.68;41.62;100638.19;2102743;83;21534;-73
2022/05/16 06:39:50;;;;;;;6.40;3.05;;;;;;;21.47;41.34;100630.87;2102471;82;22086;-75
2022/05/16 06:42:51;;;;;;;6.97;3.45;;;;;;;21.43;41.19;100636.44;2108163;83;21068;-73
2022/05/16 06:45:52;;;;;;;7.78;2.90;;;;;;;21.40;41.58;100629.29;2100890;83;21610;-74
2022/05/16 06:48:54;;;;;;;9.98;2.92;;;;;;;21.48;41.65;100631.19;2109888;83;21047;-73
2022/05/16 06:51:55;;;;;;;8.03;3.02;;;;;;;21.65;41.32;100638.64;2109008;83;21127;-76
2022/05/16 06:54:56;;;;;;;6.87;3.40;;;;;;;21.39;40.72;100633.87;2115037;83;21007;-74
2022/05/16 06:57:57;;;;;;;6.72;3.20;;;;;;;21.54;41.21;100638.05;2107045;83;21205;-74
2022/05/16 07:00:58;;;;;;;8.48;3.30;;;;;;;21.83;40.51;100633.23;2101317;83;21082;-73
2022/05/16 07:03:59;;;;;;;5.87;3.37;;;;;;;22.19;40.90;100630.66;2109358;83;21625;-77
2022/05/16 07:07:00;;;;;;;5.62;2.70;;;;;;;22.47;39.70;100631.37;2105626;83;21086;-73
2022/05/16 07:10:04;;;;;;;7.95;3.12;;;;;;;22.76;39.49;100631.83;2106565;83;21104;-73
2022/05/16 07:13:05;;;;;;;6.55;3.20;;;;;;;22.88;39.18;100629.64;2103854;83;21540;-74
2022/05/16 07:16:06;;;;;;;6.42;2.80;;;;;;;23.04;38.79;100625.73;2109825;83;21089;-74
2022/05/16 07:19:10;;;;;;;7.72;2.95;;;;;;;22.87;38.27;100629.36;2107286;83;20994;-73
2022/05/16 07:22:16;;;;;;;3.77;2.40;;;;;;;22.89;38.46;100625.37;2138997;81;21128;-73
2022/05/16 07:25:22;;;;;;;7.00;2.80;;;;;;;22.74;37.94;100629.05;2132996;81;21079;-74
2022/05/16 07:28:23;;;;;;;7.75;3.15;;;;;;;23.05;38.43;100619.78;2135550;81;21010;-73
2022/05/16 07:31:25;;;;;;;9.33;3.58;;;;;;;23.24;37.70;100625.88;2146434;81;21106;-74
2022/05/16 07:34:26;;;;;;;6.58;2.70;;;;;;;23.38;37.22;100623.73;2148589;81;21075;-76
2022/05/16 07:37:27;;;;;;;5.55;2.10;;;;;;;23.45;37.13;100619.84;2107666;82;21086;-74
2022/05/16 07:40:34;;;;;;;4.70;2.12;;;;;;;23.57;37.05;100617.09;2112847;83;21053;-73
2022/05/16 07:43:35;;;;;;;8.88;2.30;;;;;;;23.47;36.45;100616.87;2109651;83;21523;-74
2022/05/16 07:46:36;;;;;;;7.97;2.45;;;;;;;23.65;36.92;100620.78;2113549;83;21031;-74
2022/05/16 07:49:37;;;;;;;4.78;2.40;;;;;;;23.84;36.63;100605.70;2110617;83;21508;-75
2022/05/16 07:52:45;;;;;;;5.28;2.27;;;;;;;23.69;36.33;100578.58;2108978;83;21112;-76
2022/05/16 07:55:51;;;;;;;5.12;2.27;;;;;;;24.07;35.88;100615.05;2143534;81;21040;-74
2022/05/16 07:58:53;;;;;;;4.15;2.20;;;;;;;24.20;35.30;100611.23;2142229;81;21505;-75
2022/05/16 08:01:55;;;;;;;5.25;2.15;;;;;;;24.43;35.15;100615.70;2133474;81;21565;-74
2022/05/16 08:04:56;;;;;;;5.53;2.08;;;;;;;24.18;34.40;100609.28;2139783;81;22042;-75
2022/05/16 08:11:17;;;;;;;4.47;2.17;;;;;;;24.23;34.69;100609.38;2144622;81;21121;-74
2022/05/16 08:14:23;;;;;;;4.30;2.15;;;;;;;24.12;34.42;100604.31;2130552;81;21463;-73
2022/05/16 08:17:24;;;;;;;2.85;2.00;;;;;;;24.54;33.32;100608.02;2142408;81;21023;-74
2022/05/16 08:20:26;;;;;;;6.55;2.33;;;;;;;24.50;34.09;100608.23;2135519;81;21078;-73
2022/05/16 08:23:30;;;;;;;4.45;2.35;;;;;;;24.80;33.60;100609.22;2140626;81;21137;-73
2022/05/16 08:26:31;;;;;;;3.52;2.00;;;;;;;24.87;33.61;100608.24;2140217;81;22298;-73
2022/05/16 08:29:32;;;;;;;8.75;2.45;;;;;;;25.15;33.54;100606.77;2144707;81;21113;-73
2022/05/16 08:32:34;;;;;;;6.47;1.82;;;;;;;25.04;32.88;100607.13;2142951;81;21125;-73
2022/05/16 08:35:35;;;;;;;3.67;1.90;;;;;;;24.49;33.42;100606.58;2136338;82;21013;-73
2022/05/16 08:42:02;;;;;;;7.08;2.30;;;;;;;24.82;31.54;100605.73;2141959;81;21115;-73
2022/05/16 08:45:24;;;;;;;4.72;1.57;;;;;;;24.68;32.12;100611.76;2140628;81;21066;-74
2022/05/16 08:48:36;;;;;;;3.77;1.60;;;;;;;25.27;32.92;100616.14;2101157;83;21688;-75
2022/05/16 08:51:37;;;;;;;4.45;1.90;;;;;;;25.86;31.37;100626.36;2103915;82;21016;-74
2022/05/16 08:55:17;;;;;;;3.35;1.42;;;;;;;25.80;31.31;100621.38;2138289;81;21389;-74
2022/05/16 08:58:33;;;;;;;;;;;;;;;25.91;30.99;100615.55;2095933;82;21067;-74
2022/05/16 09:01:58;;;;;;;5.72;2.02;;;;;;;25.73;31.32;100609.87;2111995;83;20175;-74
2022/05/16 09:05:26;;;;;;;6.35;2.00;;;;;;;26.02;31.00;100606.96;2107507;83;21121;-75
2022/05/16 09:08:42;;;;;;;4.08;1.60;;;;;;;26.22;30.32;100607.14;2110321;83;21378;-74
2022/05/16 09:12:24;;;;;;;4.47;1.60;;;;;;;25.96;30.31;100621.56;2111233;82;21074;-74
2022/05/16 09:15:49;;;;;;;3.92;1.80;;;;;;;25.86;30.33;100612.77;2103278;83;22037;-74
2022/05/16 09:19:28;;;;;;;3.80;1.72;;;;;;;26.14;30.49;100613.05;2116947;82;21051;-74
2022/05/16 09:22:45;;;;;;;5.67;2.20;;;;;;;26.40;30.85;100612.72;2075838;83;21366;-74
2022/05/16 09:26:13;;;;;;;21.25;2.70;;;;;;;26.78;30.68;100603.51;2078323;83;21051;-75
2022/05/16 09:29:32;;;;;;;2.70;1.65;;;;;;;27.01;30.03;100597.38;2089274;83;21648;-74
2022/05/16 09:32:43;;;;;;;7.50;1.95;;;;;;;26.99;29.73;100589.45;2147509;81;21022;-74
2022/05/16 09:36:12;;;;;;;6.40;1.90;;;;;;;26.73;30.64;100592.58;2142876;81;21062;-76
2022/05/16 09:39:21;;;;;;;4.42;1.75;;;;;;;26.37;29.98;100586.85;2141951;81;21074;-76
2022/05/16 09:42:34;;;;;;;3.50;1.82;;;;;;;26.67;30.35;100584.66;2145597;81;21109;-76
2022/05/16 09:45:38;;;;;;;7.25;2.02;;;;;;;26.80;29.96;100580.91;2141795;81;21012;-74
2022/05/16 09:48:39;;;;;;;2.87;1.80;;;;;;;26.71;29.97;100589.30;2134448;81;21008;-77
2022/05/16 09:51:48;;;;;;;5.35;1.80;;;;;;;26.23;29.74;100587.55;2135263;81;21506;-74
2022/05/16 09:55:07;;;;;;;5.67;2.10;;;;;;;26.46;30.13;100589.91;2146776;81;21023;-75
2022/05/16 09:58:28;;;;;;;6.20;2.25;;;;;;;26.89;29.91;100579.05;2132394;81;21032;-75
2022/05/16 10:01:43;;;;;;;4.25;2.17;;;;;;;27.08;29.92;100575.34;2142978;81;21482;-75
2022/05/16 10:04:47;;;;;;;6.97;2.20;;;;;;;27.33;29.99;100570.02;2138056;81;21094;-75
2022/05/16 10:07:57;;;;;;;3.90;2.15;;;;;;;27.60;29.43;100568.48;2135060;81;21074;-75
2022/05/16 10:11:03;;;;;;;2.17;1.52;;;;;;;27.59;28.88;100568.73;2141225;81;21575;-75
2022/05/16 10:14:07;;;;;;;4.20;2.00;;;;;;;27.22;28.20;100575.97;2111183;82;21045;-73
2022/05/16 10:17:13;;;;;;;5.85;1.80;;;;;;;26.97;28.90;100563.02;2135058;81;21067;-74
2022/05/16 10:20:22;;;;;;;5.22;1.80;;;;;;;27.11;28.47;100564.73;2144708;81;21543;-74
2022/05/16 10:23:34;;;;;;;4.28;1.67;;;;;;;26.85;29.28;100565.70;2117394;81;21093;-73
2022/05/16 10:26:43;;;;;;;4.65;1.60;;;;;;;26.83;29.14;100565.44;2150688;81;21059;-74
2022/05/16 10:29:51;;;;;;;6.50;1.77;;;;;;;26.74;29.00;100564.82;2142452;81;21399;-73
2022/05/16 10:36:30;;;;;;;1.80;1.37;;;;;;;25.91;29.12;100563.36;2136766;81;21667;-73
2022/05/16 10:39:35;;;;;;;6.50;1.60;;;;;;;25.79;29.09;100565.91;2107393;82;21099;-78
2022/05/16 10:42:45;;;;;;;4.58;1.92;;;;;;;25.55;29.00;100561.33;2111916;83;21094;-74
2022/05/16 10:45:53;;;;;;;3.92;1.82;;;;;;;25.24;29.24;100565.05;2103838;83;21077;-74
2022/05/16 10:49:05;;;;;;;3.62;1.57;;;;;;;24.87;29.68;100552.61;2106238;82;21057;-74
2022/05/16 10:52:33;;;;;;;4.03;1.70;;;;;;;24.91;29.92;100554.55;2099755;83;21041;-73
2022/05/16 10:56:24;;;;;;;5.90;2.33;;;;;;;24.95;30.19;100553.53;2104810;83;21127;-73
2022/05/16 10:59:46;;;;;;;3.92;1.80;;;;;;;24.95;29.79;100543.49;2103890;83;21104;-75
2022/05/16 11:03:18;;;;;;;3.95;1.80;;;;;;;25.15;29.86;100539.43;2104793;83;21129;-75
2022/05/16 11:06:56;;;;;;;4.30;1.80;;;;;;;25.04;30.03;100539.80;2105725;83;21533;-75
2022/05/16 11:10:06;;;;;;;3.02;1.70;;;;;;;24.85;30.54;100535.20;2104127;82;21155;-75
2022/05/16 11:13:25;;;;;;;3.30;1.70;;;;;;;24.90;30.24;100532.56;2097689;83;21048;-75
2022/05/16 11:16:38;;;;;;;5.28;1.80;;;;;;;25.05;29.98;100526.50;2106709;82;21091;-75
2022/05/16 11:20:00;;;;;;;2.60;1.77;;;;;;;25.15;30.45;100529.38;2113393;82;21933;-74
2022/05/16 11:23:57;;;;;;;2.67;1.52;;;;;;;25.41;30.35;100525.59;2092596;83;21148;-75
2022/05/16 11:27:27;;;;;;;6.28;1.62;;;;;;;25.67;30.11;100518.52;2101847;82;21571;-75
2022/05/16 11:30:37;;;;;;;2.77;2.00;;;;;;;25.81;29.65;100515.66;2108654;82;21109;-75
2022/05/16 11:33:47;;;;;;;5.60;1.50;;;;;;;25.26;29.43;100515.39;2112779;82;21063;-74
2022/05/16 11:37:13;;;;;;;2.72;1.65;;;;;;;25.19;29.25;100518.83;2111676;83;21611;-75
2022/05/16 11:40:43;;;;;;;3.30;1.90;;;;;;;25.19;29.65;100522.90;2034719;85;21111;-75
2022/05/16 11:43:48;;;;;;;3.10;1.77;;;;;;;25.22;30.16;100512.88;2108769;82;21089;-75
2022/05/16 11:47:04;;;;;;;3.08;1.67;;;;;;;25.27;29.40;100511.05;2067576;82;21095;-75
2022/05/16 11:50:33;;;;;;;8.80;2.40;;;;;;;25.10;29.61;100510.28;2067962;82;21028;-75
2022/05/16 11:53:53;;;;;;;4.65;1.80;;;;;;;25.22;29.96;100514.24;2101622;82;21116;-75
2022/05/16 12:03:42;;;;;;;7.95;2.25;;;;;;;25.67;29.90;100492.16;2108402;82;21100;-75
2022/05/16 12:06:48;;;;;;;4.20;1.70;;;;;;;25.58;29.63;100487.46;2107744;82;21056;-75
2022/05/16 12:10:01;;;;;;;4.12;1.70;;;;;;;25.63;29.58;100488.33;2103852;82;21044;-74
2022/05/16 12:13:31;;;;;;;5.28;1.57;;;;;;;25.76;29.38;100478.91;2106076;82;21097;-75
2022/05/16 12:16:59;;;;;;;4.87;1.82;;;;;;;25.82;28.96;100472.47;2108393;82;21521;-74
2022/05/16 12:20:10;;;;;;;3.02;1.82;;;;;;;25.49;28.77;100474.89;2081060;82;21066;-75
2022/05/16 12:23:14;;;;;;;5.42;1.67;;;;;;;25.63;29.12;100475.29;2107809;82;21065;-75
2022/05/16 12:26:39;;;;;;;4.83;1.70;;;;;;;25.86;29.00;100470.89;2101458;83;21039;-75
2022/05/16 12:29:46;;;;;;;3.95;1.40;;;;;;;25.98;28.85;100470.70;2102488;82;21041;-74
2022/05/16 12:32:57;;;;;;;4.35;1.60;;;;;;;26.17;29.00;100473.84;2105420;83;21605;-74
2022/05/16 12:35:58;;;;;;;3.75;1.90;;;;;;;26.18;28.48;100461.05;2071923;83;21016;-74
2022/05/16 12:39:08;;;;;;;3.83;1.57;;;;;;;25.93;27.54;100459.27;2071013;82;21091;-74
2022/05/16 12:42:44;;;;;;;4.12;1.85;;;;;;;25.75;27.92;100451.47;2082104;83;21082;-75
2022/05/16 12:46:04;;;;;;;5.95;1.85;;;;;;;25.41;27.90;100452.26;2105390;82;21127;-75
2022/05/16 12:49:20;;;;;;;3.37;1.50;;;;;;;25.16;28.09;100449.56;2100751;82;21132;-75
2022/05/16 12:52:47;;;;;;;2.92;1.67;;;;;;;24.91;28.80;100447.34;2110551;82;21111;-75
2022/05/16 12:56:16;;;;;;;2.50;1.72;;;;;;;24.61;28.41;100434.25;2107258;82;22468;-75
2022/05/16 12:59:59;;;;;;;5.30;1.52;;;;;;;24.55;28.94;100433.37;2110619;82;21113;-75
2022/05/16 13:03:22;;;;;;;4.83;1.70;;;;;;;24.32;28.66;100426.77;2115068;82;21089;-75
2022/05/16 13:07:08;;;;;;;4.95;1.90;;;;;;;24.35;29.17;100422.20;2104617;82;21078;-74
2022/05/16 13:11:09;;;;;;;2.40;1.50;;;;;;;24.52;29.33;100413.50;2072512;82;21045;-74
2022/05/16 13:14:45;;;;;;;6.50;1.70;;;;;;;24.67;29.42;100406.65;2107808;83;21078;-74
2022/05/16 13:17:54;;;;;;;3.85;1.70;;;;;;;24.64;29.02;100400.34;2103228;82;21154;-74
2022/05/16 13:21:00;;;;;;;3.37;1.60;;;;;;;24.72;29.01;100398.55;2091151;83;21564;-74
2022/05/16 13:24:03;;;;;;;8.55;2.17;;;;;;;24.90;29.21;100399.58;2085433;83;21343;-74
2022/05/16 13:30:27;;;;;;;4.15;1.85;;;;;;;24.98;28.78;100397.77;2108050;82;21063;-74
2022/05/16 13:33:35;;;;;;;5.85;1.60;;;;;;;24.94;28.85;100400.70;2101877;83;21063;-74
2022/05/16 13:36:39;;;;;;;3.35;1.50;;;;;;;24.84;27.94;100395.17;2097609;83;21048;-74
2022/05/16 13:39:45;;;;;;;5.67;1.98;;;;;;;24.66;28.82;100397.67;2074611;83;21674;-74
2022/05/16 13:42:46;;;;;;;4.35;1.82;;;;;;;24.57;28.70;100394.58;2091123;83;21097;-74
2022/05/16 13:45:48;;;;;;;5.35;1.62;;;;;;;24.55;29.00;100394.03;2082819;83;21628;-74
2022/05/16 13:49:06;;;;;;;1.85;1.35;;;;;;;24.70;29.03;100392.58;2109413;82;21064;-74
2022/05/16 13:52:21;;;;;;;3.45;1.42;;;;;;;24.80;28.69;100383.98;2105942;82;21516;-74
2022/05/16 13:55:25;;;;;;;4.55;1.62;;;;;;;24.58;28.33;100377.25;2115549;82;21023;-74
2022/05/16 13:58:35;;;;;;;2.22;1.55;;;;;;;24.52;28.59;100379.59;2109748;82;21069;-74
2022/05/16 14:01:34;;;;;;;4.22;1.92;;;;;;;24.54;28.37;100376.10;2107493;82;21093;-74
2022/05/16 14:04:47;;;;;;;3.35;1.80;;;;;;;24.63;28.23;100368.33;2067170;84;22289;-74
2022/05/16 14:07:49;;;;;;;5.92;1.87;;;;;;;24.56;28.43;100358.23;2103218;82;21113;-74
2022/05/16 14:10:52;;;;;;;3.92;1.65;;;;;;;24.40;28.45;100366.67;2114403;82;21003;-74
2022/05/16 14:13:55;;;;;;;7.25;1.57;;;;;;;24.30;28.04;100369.25;2060003;82;21084;-74
2022/05/16 14:17:04;;;;;;;3.47;1.55;;;;;;;24.39;27.79;100360.98;2110719;82;21101;-74
2022/05/16 14:20:15;;;;;;;5.97;1.83;;;;;;;24.28;27.66;100360.57;2113449;82;20992;-75
2022/05/16 14:23:37;;;;;;;2.02;1.60;;;;;;;24.32;27.47;100354.91;2109669;83;21790;-74
2022/05/16 14:26:48;;;;;;;4.83;1.57;;;;;;;23.99;27.15;100343.12;2071035;83;21037;-74
2022/05/16 14:30:01;;;;;;;2.20;1.40;;;;;;;24.03;26.87;100338.82;2049550;83;21068;-74
2022/05/16 14:33:08;;;;;;;2.20;1.50;;;;;;;24.07;26.66;100346.72;2080002;83;21166;-75
2022/05/16 14:36:11;;;;;;;3.72;1.35;;;;;;;24.12;27.10;100341.91;2091336;81;21493;-74
2022/05/16 14:39:18;;;;;;;6.37;1.75;;;;;;;24.22;27.09;100332.57;2084198;83;21106;-74
2022/05/16 14:42:27;;;;;;;4.53;1.50;;;;;;;24.32;26.87;100325.91;2068671;83;21065;-75
2022/05/16 14:48:35;;;;;;;3.42;1.50;;;;;;;24.25;25.96;100341.55;2049407;83;21120;-75
2022/05/16 14:51:40;;;;;;;5.03;1.60;;;;;;;24.21;25.72;100339.59;2120504;82;21544;-74
2022/05/16 14:55:00;;;;;;;4.90;1.47;;;;;;;24.24;25.97;100329.59;2050461;82;21413;-74
2022/05/16 14:58:03;;;;;;;3.10;1.43;;;;;;;24.24;26.03;100333.66;2097627;82;21779;-75
2022/05/16 15:04:25;;;;;;;4.35;1.67;;;;;;;23.99;26.35;100329.56;2084403;83;21890;-74
2022/05/16 15:07:27;;;;;;;2.85;1.25;;;;;;;23.96;26.73;100316.48;2074343;83;21031;-74
2022/05/16 15:10:29;;;;;;;5.05;2.17;;;;;;;23.97;26.74;100323.56;2098266;83;21032;-74
2022/05/16 15:13:30;;;;;;;2.83;1.62;;;;;;;23.79;26.52;100319.77;2078374;83;21116;-74
2022/05/16 15:16:31;;;;;;;3.65;1.80;;;;;;;23.61;25.78;100324.38;2117055;82;21508;-74
2022/05/16 15:19:34;;;;;;;3.65;2.52;;;;;;;23.48;25.51;100315.22;2098624;83;21060;-74
2022/05/16 15:22:36;;;;;;;2.95;1.40;;;;;;;23.32;25.58;100307.95;2111983;82;21063;-74
2022/05/16 15:25:38;;;;;;;2.65;1.30;;;;;;;23.32;26.08;100302.53;2085937;83;21116;-74
2022/05/16 15:28:42;;;;;;;2.70;1.45;;;;;;;23.40;25.98;100304.83;2126037;82;21049;-74